sensor_id;sensor_type;location;lat;lon;timestamp;temperature;humidity
16511;DHT22;8368;48.772;8.754;2023-04-08T00:00:05;6.10;99.90
16511;DHT22;8368;48.772;8.754;2023-04-08T00:02:32;6.10;99.90
16511;DHT22;8368;48.772;8.754;2023-04-08T00:04:58;6.00;99.90
16511;DHT22;8368;48.772;8.754;2023-04-08T00:07:23;5.90;99.90
16511;DHT22;8368;48.772;8.754;2023-04-08T00:09:49;5.90;99.90
16511;DHT22;8368;48.772;8.754;2023-04-08T00:12:14;5.90;99.90
16511;DHT22;8368;48.772;8.754;2023-04-08T00:14:40;5.80;99.90
16511;DHT22;8368;48.772;8.754;2023-04-08T00:17:06;5.80;99.90
16511;DHT22;8368;48.772;8.754;2023-04-08T00:19:32;5.80;99.90
16511;DHT22;8368;48.772;8.754;2023-04-08T00:21:58;5.70;99.90
16511;DHT22;8368;48.772;8.754;2023-04-08T00:24:23;5.80;99.90
16511;DHT22;8368;48.772;8.754;2023-04-08T00:26:50;5.80;99.90
16511;DHT22;8368;48.772;8.754;2023-04-08T00:29:15;5.80;99.90
16511;DHT22;8368;48.772;8.754;2023-04-08T00:31:41;5.90;99.90
16511;DHT22;8368;48.772;8.754;2023-04-08T00:34:06;5.90;99.90
16511;DHT22;8368;48.772;8.754;2023-04-08T00:36:32;6.00;99.90
16511;DHT22;8368;48.772;8.754;2023-04-08T00:38:58;6.00;99.90
16511;DHT22;8368;48.772;8.754;2023-04-08T00:41:23;6.00;99.90
16511;DHT22;8368;48.772;8.754;2023-04-08T00:43:49;6.10;99.90
16511;DHT22;8368;48.772;8.754;2023-04-08T00:46:14;6.10;99.90
16511;DHT22;8368;48.772;8.754;2023-04-08T00:48:41;6.10;99.90
16511;DHT22;8368;48.772;8.754;2023-04-08T00:51:07;6.20;99.90
16511;DHT22;8368;48.772;8.754;2023-04-08T00:53:32;6.20;99.90
16511;DHT22;8368;48.772;8.754;2023-04-08T00:55:58;6.20;99.90
16511;DHT22;8368;48.772;8.754;2023-04-08T00:58:25;6.20;99.90
16511;DHT22;8368;48.772;8.754;2023-04-08T01:01:04;6.20;99.90
16511;DHT22;8368;48.772;8.754;2023-04-08T01:03:41;6.20;99.90
16511;DHT22;8368;48.772;8.754;2023-04-08T01:06:40;6.20;99.90
16511;DHT22;8368;48.772;8.754;2023-04-08T01:09:09;6.20;99.90
16511;DHT22;8368;48.772;8.754;2023-04-08T01:11:37;6.20;99.90
16511;DHT22;8368;48.772;8.754;2023-04-08T01:14:06;6.20;99.90
16511;DHT22;8368;48.772;8.754;2023-04-08T01:16:39;6.10;99.90
16511;DHT22;8368;48.772;8.754;2023-04-08T01:19:07;6.20;99.90
16511;DHT22;8368;48.772;8.754;2023-04-08T01:21:35;6.10;99.90
16511;DHT22;8368;48.772;8.754;2023-04-08T01:24:19;6.10;99.90
16511;DHT22;8368;48.772;8.754;2023-04-08T01:26:48;6.10;99.90
16511;DHT22;8368;48.772;8.754;2023-04-08T01:29:15;6.20;99.90
16511;DHT22;8368;48.772;8.754;2023-04-08T01:31:41;6.10;99.90
16511;DHT22;8368;48.772;8.754;2023-04-08T01:34:09;6.10;99.90
16511;DHT22;8368;48.772;8.754;2023-04-08T01:36:37;6.20;99.90
16511;DHT22;8368;48.772;8.754;2023-04-08T01:39:04;6.10;99.90
16511;DHT22;8368;48.772;8.754;2023-04-08T01:41:33;6.20;99.90
16511;DHT22;8368;48.772;8.754;2023-04-08T01:44:01;6.20;99.90
16511;DHT22;8368;48.772;8.754;2023-04-08T01:46:28;6.20;99.90
16511;DHT22;8368;48.772;8.754;2023-04-08T01:48:54;6.20;99.90
16511;DHT22;8368;48.772;8.754;2023-04-08T01:51:21;6.10;99.90
16511;DHT22;8368;48.772;8.754;2023-04-08T01:53:47;6.10;99.90
16511;DHT22;8368;48.772;8.754;2023-04-08T01:56:14;6.10;99.90
16511;DHT22;8368;48.772;8.754;2023-04-08T01:58:42;6.10;99.90
16511;DHT22;8368;48.772;8.754;2023-04-08T02:01:12;6.10;99.90
16511;DHT22;8368;48.772;8.754;2023-04-08T02:03:40;6.00;99.90
16511;DHT22;8368;48.772;8.754;2023-04-08T02:06:06;6.00;99.90
16511;DHT22;8368;48.772;8.754;2023-04-08T02:08:33;6.00;99.90
16511;DHT22;8368;48.772;8.754;2023-04-08T02:10:59;6.00;99.90
16511;DHT22;8368;48.772;8.754;2023-04-08T02:13:25;6.00;99.90
16511;DHT22;8368;48.772;8.754;2023-04-08T02:15:56;6.00;99.90
16511;DHT22;8368;48.772;8.754;2023-04-08T02:18:24;6.00;99.90
16511;DHT22;8368;48.772;8.754;2023-04-08T02:21:13;6.00;99.90
16511;DHT22;8368;48.772;8.754;2023-04-08T02:23:40;6.00;99.90
16511;DHT22;8368;48.772;8.754;2023-04-08T02:26:12;5.90;99.90
16511;DHT22;8368;48.772;8.754;2023-04-08T02:28:39;6.00;99.90
16511;DHT22;8368;48.772;8.754;2023-04-08T02:31:09;6.00;99.90
16511;DHT22;8368;48.772;8.754;2023-04-08T02:33:38;6.00;99.90
16511;DHT22;8368;48.772;8.754;2023-04-08T02:36:04;5.90;99.90
16511;DHT22;8368;48.772;8.754;2023-04-08T02:38:30;5.90;99.90
16511;DHT22;8368;48.772;8.754;2023-04-08T02:40:56;5.90;99.90
16511;DHT22;8368;48.772;8.754;2023-04-08T02:43:23;5.90;99.90
16511;DHT22;8368;48.772;8.754;2023-04-08T02:45:56;5.90;99.90
16511;DHT22;8368;48.772;8.754;2023-04-08T02:48:22;5.90;99.90
16511;DHT22;8368;48.772;8.754;2023-04-08T02:50:47;5.90;99.90
16511;DHT22;8368;48.772;8.754;2023-04-08T02:53:13;5.90;99.90
16511;DHT22;8368;48.772;8.754;2023-04-08T02:55:38;5.90;99.90
16511;DHT22;8368;48.772;8.754;2023-04-08T02:58:04;5.90;99.90
16511;DHT22;8368;48.772;8.754;2023-04-08T03:00:30;5.90;99.90
16511;DHT22;8368;48.772;8.754;2023-04-08T03:02:55;5.80;99.90
16511;DHT22;8368;48.772;8.754;2023-04-08T03:05:21;5.80;99.90
16511;DHT22;8368;48.772;8.754;2023-04-08T03:07:47;5.80;99.90
16511;DHT22;8368;48.772;8.754;2023-04-08T03:10:12;5.80;99.90
16511;DHT22;8368;48.772;8.754;2023-04-08T03:12:38;5.90;99.90
16511;DHT22;8368;48.772;8.754;2023-04-08T03:15:04;5.80;99.90
16511;DHT22;8368;48.772;8.754;2023-04-08T03:17:30;5.90;99.90
16511;DHT22;8368;48.772;8.754;2023-04-08T03:19:59;5.90;99.90
16511;DHT22;8368;48.772;8.754;2023-04-08T03:22:24;5.90;99.90
16511;DHT22;8368;48.772;8.754;2023-04-08T03:24:50;5.90;99.90
16511;DHT22;8368;48.772;8.754;2023-04-08T03:27:16;5.90;99.90
16511;DHT22;8368;48.772;8.754;2023-04-08T03:29:41;5.90;99.90
16511;DHT22;8368;48.772;8.754;2023-04-08T03:32:07;5.90;99.90
16511;DHT22;8368;48.772;8.754;2023-04-08T03:34:33;5.90;99.90
16511;DHT22;8368;48.772;8.754;2023-04-08T03:36:59;5.90;99.90
16511;DHT22;8368;48.772;8.754;2023-04-08T03:39:25;5.90;99.90
16511;DHT22;8368;48.772;8.754;2023-04-08T03:41:51;5.90;99.90
16511;DHT22;8368;48.772;8.754;2023-04-08T03:44:16;5.90;99.90
16511;DHT22;8368;48.772;8.754;2023-04-08T03:46:42;5.80;99.90
16511;DHT22;8368;48.772;8.754;2023-04-08T03:49:07;5.80;99.90
16511;DHT22;8368;48.772;8.754;2023-04-08T03:51:33;5.80;99.90
16511;DHT22;8368;48.772;8.754;2023-04-08T03:53:58;5.80;99.90
16511;DHT22;8368;48.772;8.754;2023-04-08T03:56:24;5.80;99.90
16511;DHT22;8368;48.772;8.754;2023-04-08T03:58:50;5.80;99.90
16511;DHT22;8368;48.772;8.754;2023-04-08T04:01:15;5.80;99.90
16511;DHT22;8368;48.772;8.754;2023-04-08T04:03:41;5.80;99.90
16511;DHT22;8368;48.772;8.754;2023-04-08T04:06:06;5.80;99.90
16511;DHT22;8368;48.772;8.754;2023-04-08T04:08:32;5.80;99.90
16511;DHT22;8368;48.772;8.754;2023-04-08T04:10:58;5.80;99.90
16511;DHT22;8368;48.772;8.754;2023-04-08T04:13:24;5.80;99.90
16511;DHT22;8368;48.772;8.754;2023-04-08T04:15:49;5.80;99.90
16511;DHT22;8368;48.772;8.754;2023-04-08T04:18:15;5.90;99.90
16511;DHT22;8368;48.772;8.754;2023-04-08T04:20:41;5.80;99.90
16511;DHT22;8368;48.772;8.754;2023-04-08T04:23:08;5.80;99.90
16511;DHT22;8368;48.772;8.754;2023-04-08T04:25:33;5.80;99.90
16511;DHT22;8368;48.772;8.754;2023-04-08T04:27:59;5.80;99.90
16511;DHT22;8368;48.772;8.754;2023-04-08T04:30:26;5.80;99.90
16511;DHT22;8368;48.772;8.754;2023-04-08T04:32:52;5.80;99.90
16511;DHT22;8368;48.772;8.754;2023-04-08T04:35:17;5.80;99.90
16511;DHT22;8368;48.772;8.754;2023-04-08T04:37:43;5.80;99.90
16511;DHT22;8368;48.772;8.754;2023-04-08T04:40:08;5.90;99.90
16511;DHT22;8368;48.772;8.754;2023-04-08T04:42:34;5.90;99.90
16511;DHT22;8368;48.772;8.754;2023-04-08T04:45:00;5.90;99.90
16511;DHT22;8368;48.772;8.754;2023-04-08T04:47:25;5.90;99.90
16511;DHT22;8368;48.772;8.754;2023-04-08T04:49:51;5.90;99.90
16511;DHT22;8368;48.772;8.754;2023-04-08T04:52:16;5.80;99.90
16511;DHT22;8368;48.772;8.754;2023-04-08T04:54:42;5.80;99.90
16511;DHT22;8368;48.772;8.754;2023-04-08T04:57:08;5.80;99.90
16511;DHT22;8368;48.772;8.754;2023-04-08T04:59:33;5.70;99.90
16511;DHT22;8368;48.772;8.754;2023-04-08T05:01:59;5.70;99.90
16511;DHT22;8368;48.772;8.754;2023-04-08T05:04:24;5.70;99.90
16511;DHT22;8368;48.772;8.754;2023-04-08T05:06:50;5.70;99.90
16511;DHT22;8368;48.772;8.754;2023-04-08T05:09:16;5.70;99.90
16511;DHT22;8368;48.772;8.754;2023-04-08T05:11:42;5.70;99.90
16511;DHT22;8368;48.772;8.754;2023-04-08T05:14:07;5.80;99.90
16511;DHT22;8368;48.772;8.754;2023-04-08T05:16:33;5.80;99.90
16511;DHT22;8368;48.772;8.754;2023-04-08T05:18:58;5.80;99.90
16511;DHT22;8368;48.772;8.754;2023-04-08T05:21:24;5.80;99.90
16511;DHT22;8368;48.772;8.754;2023-04-08T05:23:50;5.80;99.90
16511;DHT22;8368;48.772;8.754;2023-04-08T05:26:18;5.80;99.90
16511;DHT22;8368;48.772;8.754;2023-04-08T05:28:44;5.80;99.90
16511;DHT22;8368;48.772;8.754;2023-04-08T05:31:09;5.80;99.90
16511;DHT22;8368;48.772;8.754;2023-04-08T05:33:36;5.90;99.90
16511;DHT22;8368;48.772;8.754;2023-04-08T05:36:01;5.90;99.90
16511;DHT22;8368;48.772;8.754;2023-04-08T05:38:27;5.90;99.90
16511;DHT22;8368;48.772;8.754;2023-04-08T05:40:53;6.00;99.90
16511;DHT22;8368;48.772;8.754;2023-04-08T05:43:18;6.00;99.90
16511;DHT22;8368;48.772;8.754;2023-04-08T05:45:44;6.00;99.90
16511;DHT22;8368;48.772;8.754;2023-04-08T05:48:09;6.10;99.90
16511;DHT22;8368;48.772;8.754;2023-04-08T05:50:35;6.10;99.90
16511;DHT22;8368;48.772;8.754;2023-04-08T05:53:00;6.10;99.90
16511;DHT22;8368;48.772;8.754;2023-04-08T05:55:26;6.10;99.90
16511;DHT22;8368;48.772;8.754;2023-04-08T05:57:51;6.10;99.90
16511;DHT22;8368;48.772;8.754;2023-04-08T06:00:17;6.10;99.90
16511;DHT22;8368;48.772;8.754;2023-04-08T06:02:45;6.10;99.90
16511;DHT22;8368;48.772;8.754;2023-04-08T06:05:10;6.10;99.90
16511;DHT22;8368;48.772;8.754;2023-04-08T06:07:36;6.10;99.90
16511;DHT22;8368;48.772;8.754;2023-04-08T06:10:02;6.10;99.90
16511;DHT22;8368;48.772;8.754;2023-04-08T06:12:27;6.20;99.90
16511;DHT22;8368;48.772;8.754;2023-04-08T06:14:54;6.20;99.90
16511;DHT22;8368;48.772;8.754;2023-04-08T06:17:20;6.30;99.90
16511;DHT22;8368;48.772;8.754;2023-04-08T06:19:46;6.30;99.90
16511;DHT22;8368;48.772;8.754;2023-04-08T06:22:11;6.40;99.90
16511;DHT22;8368;48.772;8.754;2023-04-08T06:24:37;6.40;99.90
16511;DHT22;8368;48.772;8.754;2023-04-08T06:27:02;6.50;99.90
16511;DHT22;8368;48.772;8.754;2023-04-08T06:29:27;6.60;99.90
16511;DHT22;8368;48.772;8.754;2023-04-08T06:31:54;6.60;99.90
16511;DHT22;8368;48.772;8.754;2023-04-08T06:34:20;6.50;99.90
16511;DHT22;8368;48.772;8.754;2023-04-08T06:36:45;6.60;99.90
16511;DHT22;8368;48.772;8.754;2023-04-08T06:39:11;6.60;99.90
16511;DHT22;8368;48.772;8.754;2023-04-08T06:41:36;6.50;99.90
16511;DHT22;8368;48.772;8.754;2023-04-08T06:44:02;6.50;99.90
16511;DHT22;8368;48.772;8.754;2023-04-08T06:46:27;6.60;99.90
16511;DHT22;8368;48.772;8.754;2023-04-08T06:48:53;6.60;99.90
16511;DHT22;8368;48.772;8.754;2023-04-08T06:51:19;6.60;99.90
16511;DHT22;8368;48.772;8.754;2023-04-08T06:53:45;6.60;99.90
16511;DHT22;8368;48.772;8.754;2023-04-08T06:56:10;6.70;99.90
16511;DHT22;8368;48.772;8.754;2023-04-08T06:58:36;6.70;99.90
16511;DHT22;8368;48.772;8.754;2023-04-08T07:01:02;6.70;99.90
16511;DHT22;8368;48.772;8.754;2023-04-08T07:03:27;6.70;99.90
16511;DHT22;8368;48.772;8.754;2023-04-08T07:05:53;6.60;99.90
16511;DHT22;8368;48.772;8.754;2023-04-08T07:08:19;6.60;99.90
16511;DHT22;8368;48.772;8.754;2023-04-08T07:10:44;6.60;99.90
16511;DHT22;8368;48.772;8.754;2023-04-08T07:13:10;6.60;99.90
16511;DHT22;8368;48.772;8.754;2023-04-08T07:15:36;6.70;99.90
16511;DHT22;8368;48.772;8.754;2023-04-08T07:18:01;6.70;99.90
16511;DHT22;8368;48.772;8.754;2023-04-08T07:20:29;6.80;99.90
16511;DHT22;8368;48.772;8.754;2023-04-08T07:22:54;6.80;99.90
16511;DHT22;8368;48.772;8.754;2023-04-08T07:25:20;6.80;99.90
16511;DHT22;8368;48.772;8.754;2023-04-08T07:27:46;6.80;99.90
16511;DHT22;8368;48.772;8.754;2023-04-08T07:30:11;6.90;99.90
16511;DHT22;8368;48.772;8.754;2023-04-08T07:32:37;6.90;99.90
16511;DHT22;8368;48.772;8.754;2023-04-08T07:35:03;7.00;99.90
16511;DHT22;8368;48.772;8.754;2023-04-08T07:37:29;7.10;99.90
16511;DHT22;8368;48.772;8.754;2023-04-08T07:39:54;7.20;99.90
16511;DHT22;8368;48.772;8.754;2023-04-08T07:42:20;7.10;99.90
16511;DHT22;8368;48.772;8.754;2023-04-08T07:44:46;7.30;99.90
16511;DHT22;8368;48.772;8.754;2023-04-08T07:47:12;7.40;99.90
16511;DHT22;8368;48.772;8.754;2023-04-08T07:49:37;7.50;99.90
16511;DHT22;8368;48.772;8.754;2023-04-08T07:52:03;7.70;99.90
16511;DHT22;8368;48.772;8.754;2023-04-08T07:54:32;7.80;99.90
16511;DHT22;8368;48.772;8.754;2023-04-08T07:57:01;7.80;99.90
16511;DHT22;8368;48.772;8.754;2023-04-08T07:59:27;7.80;99.90
16511;DHT22;8368;48.772;8.754;2023-04-08T08:01:53;7.70;99.90
16511;DHT22;8368;48.772;8.754;2023-04-08T08:04:18;7.60;99.90
16511;DHT22;8368;48.772;8.754;2023-04-08T08:06:44;7.70;99.90
16511;DHT22;8368;48.772;8.754;2023-04-08T08:09:10;7.60;99.90
16511;DHT22;8368;48.772;8.754;2023-04-08T08:11:36;7.70;99.90
16511;DHT22;8368;48.772;8.754;2023-04-08T08:14:01;7.70;99.90
16511;DHT22;8368;48.772;8.754;2023-04-08T08:16:29;7.70;99.90
16511;DHT22;8368;48.772;8.754;2023-04-08T08:18:56;7.70;99.90
16511;DHT22;8368;48.772;8.754;2023-04-08T08:21:21;7.70;99.90
16511;DHT22;8368;48.772;8.754;2023-04-08T08:23:47;7.70;99.90
16511;DHT22;8368;48.772;8.754;2023-04-08T08:26:13;7.70;99.90
16511;DHT22;8368;48.772;8.754;2023-04-08T08:28:38;7.70;99.90
16511;DHT22;8368;48.772;8.754;2023-04-08T08:31:04;7.80;99.90
16511;DHT22;8368;48.772;8.754;2023-04-08T08:33:31;8.10;99.90
16511;DHT22;8368;48.772;8.754;2023-04-08T08:35:56;8.30;99.90
16511;DHT22;8368;48.772;8.754;2023-04-08T08:38:22;8.40;99.90
16511;DHT22;8368;48.772;8.754;2023-04-08T08:40:53;8.30;99.90
16511;DHT22;8368;48.772;8.754;2023-04-08T08:43:20;8.40;99.90
16511;DHT22;8368;48.772;8.754;2023-04-08T08:45:46;8.50;99.90
16511;DHT22;8368;48.772;8.754;2023-04-08T08:48:12;8.30;99.90
16511;DHT22;8368;48.772;8.754;2023-04-08T08:50:37;8.40;99.90
16511;DHT22;8368;48.772;8.754;2023-04-08T08:53:03;8.60;99.90
16511;DHT22;8368;48.772;8.754;2023-04-08T08:55:30;8.80;99.90
16511;DHT22;8368;48.772;8.754;2023-04-08T08:57:58;8.70;99.90
16511;DHT22;8368;48.772;8.754;2023-04-08T09:00:41;8.80;99.90
16511;DHT22;8368;48.772;8.754;2023-04-08T09:03:21;8.80;99.90
16511;DHT22;8368;48.772;8.754;2023-04-08T09:05:52;8.50;99.90
16511;DHT22;8368;48.772;8.754;2023-04-08T09:08:27;8.50;99.90
16511;DHT22;8368;48.772;8.754;2023-04-08T09:10:54;8.60;99.90
16511;DHT22;8368;48.772;8.754;2023-04-08T09:13:21;8.70;99.90
16511;DHT22;8368;48.772;8.754;2023-04-08T09:16:00;8.80;99.90
16511;DHT22;8368;48.772;8.754;2023-04-08T09:18:28;8.90;99.90
16511;DHT22;8368;48.772;8.754;2023-04-08T09:20:53;8.90;99.90
16511;DHT22;8368;48.772;8.754;2023-04-08T09:23:19;9.10;99.90
16511;DHT22;8368;48.772;8.754;2023-04-08T09:25:44;9.00;99.90
16511;DHT22;8368;48.772;8.754;2023-04-08T09:28:19;9.10;99.90
16511;DHT22;8368;48.772;8.754;2023-04-08T09:30:46;9.00;99.90
16511;DHT22;8368;48.772;8.754;2023-04-08T09:33:12;9.10;99.90
16511;DHT22;8368;48.772;8.754;2023-04-08T09:35:37;9.10;99.90
16511;DHT22;8368;48.772;8.754;2023-04-08T09:38:03;9.10;99.90
16511;DHT22;8368;48.772;8.754;2023-04-08T09:40:34;9.20;99.90
16511;DHT22;8368;48.772;8.754;2023-04-08T09:43:04;9.30;99.90
16511;DHT22;8368;48.772;8.754;2023-04-08T09:45:33;9.30;99.90
16511;DHT22;8368;48.772;8.754;2023-04-08T09:48:14;9.50;99.90
16511;DHT22;8368;48.772;8.754;2023-04-08T09:50:49;9.70;99.90
16511;DHT22;8368;48.772;8.754;2023-04-08T09:53:29;9.60;99.90
16511;DHT22;8368;48.772;8.754;2023-04-08T09:55:59;9.50;99.90
16511;DHT22;8368;48.772;8.754;2023-04-08T09:58:48;9.50;99.90
16511;DHT22;8368;48.772;8.754;2023-04-08T10:01:27;9.60;99.90
16511;DHT22;8368;48.772;8.754;2023-04-08T10:03:57;9.80;99.90
16511;DHT22;8368;48.772;8.754;2023-04-08T10:06:27;9.80;99.90
16511;DHT22;8368;48.772;8.754;2023-04-08T10:08:55;9.80;99.90
16511;DHT22;8368;48.772;8.754;2023-04-08T10:11:21;9.90;99.90
16511;DHT22;8368;48.772;8.754;2023-04-08T10:13:47;9.90;99.90
16511;DHT22;8368;48.772;8.754;2023-04-08T10:18:47;10.10;99.90
16511;DHT22;8368;48.772;8.754;2023-04-08T10:21:39;10.10;99.90
16511;DHT22;8368;48.772;8.754;2023-04-08T10:24:12;10.20;99.90
16511;DHT22;8368;48.772;8.754;2023-04-08T10:31:50;9.90;99.90
16511;DHT22;8368;48.772;8.754;2023-04-08T10:34:20;9.90;99.90
16511;DHT22;8368;48.772;8.754;2023-04-08T10:36:47;9.90;99.90
16511;DHT22;8368;48.772;8.754;2023-04-08T10:39:14;10.00;99.90
16511;DHT22;8368;48.772;8.754;2023-04-08T10:41:50;10.10;99.90
16511;DHT22;8368;48.772;8.754;2023-04-08T10:44:21;10.30;99.90
16511;DHT22;8368;48.772;8.754;2023-04-08T10:46:48;10.30;99.90
16511;DHT22;8368;48.772;8.754;2023-04-08T10:49:14;10.40;99.90
16511;DHT22;8368;48.772;8.754;2023-04-08T10:51:41;10.40;99.90
16511;DHT22;8368;48.772;8.754;2023-04-08T10:54:10;10.50;99.90
16511;DHT22;8368;48.772;8.754;2023-04-08T10:56:43;10.40;99.90
16511;DHT22;8368;48.772;8.754;2023-04-08T10:59:09;10.50;99.90
16511;DHT22;8368;48.772;8.754;2023-04-08T11:01:39;10.50;99.90
16511;DHT22;8368;48.772;8.754;2023-04-08T11:04:15;10.20;99.90
16511;DHT22;8368;48.772;8.754;2023-04-08T11:06:43;10.10;99.90
16511;DHT22;8368;48.772;8.754;2023-04-08T11:09:09;10.10;99.90
16511;DHT22;8368;48.772;8.754;2023-04-08T11:11:35;10.10;99.90
16511;DHT22;8368;48.772;8.754;2023-04-08T11:14:01;10.10;99.90
16511;DHT22;8368;48.772;8.754;2023-04-08T11:16:27;10.10;99.90
16511;DHT22;8368;48.772;8.754;2023-04-08T11:18:53;10.00;99.90
16511;DHT22;8368;48.772;8.754;2023-04-08T11:21:22;10.00;99.90
16511;DHT22;8368;48.772;8.754;2023-04-08T11:23:51;9.90;99.90
16511;DHT22;8368;48.772;8.754;2023-04-08T11:26:18;9.90;99.90
16511;DHT22;8368;48.772;8.754;2023-04-08T11:28:44;9.80;99.90
16511;DHT22;8368;48.772;8.754;2023-04-08T11:31:11;9.90;99.90
16511;DHT22;8368;48.772;8.754;2023-04-08T11:33:37;9.90;99.90
16511;DHT22;8368;48.772;8.754;2023-04-08T11:36:11;9.80;99.90
16511;DHT22;8368;48.772;8.754;2023-04-08T11:38:38;9.80;99.90
16511;DHT22;8368;48.772;8.754;2023-04-08T11:41:05;9.80;99.90
16511;DHT22;8368;48.772;8.754;2023-04-08T11:43:31;9.70;99.90
16511;DHT22;8368;48.772;8.754;2023-04-08T11:45:56;9.80;99.90
16511;DHT22;8368;48.772;8.754;2023-04-08T11:48:22;9.70;99.90
16511;DHT22;8368;48.772;8.754;2023-04-08T11:51:04;9.70;99.90
16511;DHT22;8368;48.772;8.754;2023-04-08T11:53:30;9.70;99.90
16511;DHT22;8368;48.772;8.754;2023-04-08T11:55:56;9.70;99.90
16511;DHT22;8368;48.772;8.754;2023-04-08T11:58:22;9.70;99.90
16511;DHT22;8368;48.772;8.754;2023-04-08T12:00:47;9.70;99.90
16511;DHT22;8368;48.772;8.754;2023-04-08T12:03:13;9.80;99.90
16511;DHT22;8368;48.772;8.754;2023-04-08T12:05:39;9.90;99.90
16511;DHT22;8368;48.772;8.754;2023-04-08T12:08:05;9.80;99.90
16511;DHT22;8368;48.772;8.754;2023-04-08T12:10:30;9.70;99.90
16511;DHT22;8368;48.772;8.754;2023-04-08T12:12:56;9.70;99.90
16511;DHT22;8368;48.772;8.754;2023-04-08T12:15:22;9.80;99.90
16511;DHT22;8368;48.772;8.754;2023-04-08T12:17:47;10.00;99.90
16511;DHT22;8368;48.772;8.754;2023-04-08T12:20:13;10.10;99.90
16511;DHT22;8368;48.772;8.754;2023-04-08T12:22:40;10.10;99.90
16511;DHT22;8368;48.772;8.754;2023-04-08T12:25:05;10.00;99.90
16511;DHT22;8368;48.772;8.754;2023-04-08T12:27:32;9.90;99.90
16511;DHT22;8368;48.772;8.754;2023-04-08T12:30:01;9.80;99.90
16511;DHT22;8368;48.772;8.754;2023-04-08T12:32:27;9.80;99.90
16511;DHT22;8368;48.772;8.754;2023-04-08T12:34:53;9.90;99.90
16511;DHT22;8368;48.772;8.754;2023-04-08T12:37:19;9.90;99.90
16511;DHT22;8368;48.772;8.754;2023-04-08T12:39:47;9.80;99.90
16511;DHT22;8368;48.772;8.754;2023-04-08T12:42:13;9.80;99.90
16511;DHT22;8368;48.772;8.754;2023-04-08T12:44:39;9.90;99.90
16511;DHT22;8368;48.772;8.754;2023-04-08T12:47:04;9.90;99.90
16511;DHT22;8368;48.772;8.754;2023-04-08T12:49:30;9.90;99.90
16511;DHT22;8368;48.772;8.754;2023-04-08T12:51:55;9.90;99.90
16511;DHT22;8368;48.772;8.754;2023-04-08T12:54:21;10.00;99.90
16511;DHT22;8368;48.772;8.754;2023-04-08T12:56:46;10.00;99.90
16511;DHT22;8368;48.772;8.754;2023-04-08T12:59:13;9.90;99.90
16511;DHT22;8368;48.772;8.754;2023-04-08T13:01:38;10.00;99.90
16511;DHT22;8368;48.772;8.754;2023-04-08T13:04:04;10.00;99.90
16511;DHT22;8368;48.772;8.754;2023-04-08T13:06:30;10.10;99.90
16511;DHT22;8368;48.772;8.754;2023-04-08T13:08:56;10.20;99.90
16511;DHT22;8368;48.772;8.754;2023-04-08T13:11:22;10.30;99.90
16511;DHT22;8368;48.772;8.754;2023-04-08T13:13:47;10.50;99.90
16511;DHT22;8368;48.772;8.754;2023-04-08T13:16:13;10.50;99.90
16511;DHT22;8368;48.772;8.754;2023-04-08T13:18:40;10.60;99.90
16511;DHT22;8368;48.772;8.754;2023-04-08T13:21:06;10.50;99.90
16511;DHT22;8368;48.772;8.754;2023-04-08T13:23:32;10.50;99.90
16511;DHT22;8368;48.772;8.754;2023-04-08T13:25:57;10.60;99.90
16511;DHT22;8368;48.772;8.754;2023-04-08T13:28:23;10.80;99.90
16511;DHT22;8368;48.772;8.754;2023-04-08T13:30:48;10.80;99.90
16511;DHT22;8368;48.772;8.754;2023-04-08T13:33:14;10.80;99.90
16511;DHT22;8368;48.772;8.754;2023-04-08T13:35:39;11.00;99.90
16511;DHT22;8368;48.772;8.754;2023-04-08T13:38:05;11.00;99.90
16511;DHT22;8368;48.772;8.754;2023-04-08T13:40:31;11.00;99.90
16511;DHT22;8368;48.772;8.754;2023-04-08T13:42:57;11.10;99.90
16511;DHT22;8368;48.772;8.754;2023-04-08T13:45:23;11.10;99.90
16511;DHT22;8368;48.772;8.754;2023-04-08T13:47:48;11.10;99.90
16511;DHT22;8368;48.772;8.754;2023-04-08T13:50:14;11.30;99.90
16511;DHT22;8368;48.772;8.754;2023-04-08T13:52:40;11.30;99.90
16511;DHT22;8368;48.772;8.754;2023-04-08T13:55:05;11.50;99.90
16511;DHT22;8368;48.772;8.754;2023-04-08T13:57:31;11.50;99.90
16511;DHT22;8368;48.772;8.754;2023-04-08T13:59:56;11.40;99.90
16511;DHT22;8368;48.772;8.754;2023-04-08T14:02:22;11.50;99.90
16511;DHT22;8368;48.772;8.754;2023-04-08T14:04:48;11.60;99.90
16511;DHT22;8368;48.772;8.754;2023-04-08T14:07:14;11.60;99.90
16511;DHT22;8368;48.772;8.754;2023-04-08T14:09:39;11.60;99.90
16511;DHT22;8368;48.772;8.754;2023-04-08T14:12:05;11.60;99.90
16511;DHT22;8368;48.772;8.754;2023-04-08T14:14:31;11.50;99.90
16511;DHT22;8368;48.772;8.754;2023-04-08T14:16:56;11.30;99.90
16511;DHT22;8368;48.772;8.754;2023-04-08T14:19:22;11.20;99.90
16511;DHT22;8368;48.772;8.754;2023-04-08T14:21:47;11.30;99.90
16511;DHT22;8368;48.772;8.754;2023-04-08T14:24:13;11.30;99.90
16511;DHT22;8368;48.772;8.754;2023-04-08T14:26:39;11.20;99.90
16511;DHT22;8368;48.772;8.754;2023-04-08T14:29:05;11.20;99.90
16511;DHT22;8368;48.772;8.754;2023-04-08T14:31:32;11.00;99.90
16511;DHT22;8368;48.772;8.754;2023-04-08T14:33:58;10.90;99.90
16511;DHT22;8368;48.772;8.754;2023-04-08T14:36:24;10.90;99.90
16511;DHT22;8368;48.772;8.754;2023-04-08T14:38:50;10.70;99.90
16511;DHT22;8368;48.772;8.754;2023-04-08T14:41:16;10.80;99.90
16511;DHT22;8368;48.772;8.754;2023-04-08T14:43:41;10.90;99.90
16511;DHT22;8368;48.772;8.754;2023-04-08T14:46:07;11.10;99.90
16511;DHT22;8368;48.772;8.754;2023-04-08T14:48:32;11.00;99.90
16511;DHT22;8368;48.772;8.754;2023-04-08T14:50:58;10.90;99.90
16511;DHT22;8368;48.772;8.754;2023-04-08T14:53:24;10.90;99.90
16511;DHT22;8368;48.772;8.754;2023-04-08T14:55:50;10.80;99.90
16511;DHT22;8368;48.772;8.754;2023-04-08T14:58:16;11.00;99.90
16511;DHT22;8368;48.772;8.754;2023-04-08T15:00:42;11.00;99.90
16511;DHT22;8368;48.772;8.754;2023-04-08T15:03:12;11.10;99.90
16511;DHT22;8368;48.772;8.754;2023-04-08T15:05:38;11.20;99.90
16511;DHT22;8368;48.772;8.754;2023-04-08T15:08:03;11.20;99.90
16511;DHT22;8368;48.772;8.754;2023-04-08T15:10:29;11.20;99.90
16511;DHT22;8368;48.772;8.754;2023-04-08T15:12:56;10.90;99.90
16511;DHT22;8368;48.772;8.754;2023-04-08T15:15:21;10.80;99.90
16511;DHT22;8368;48.772;8.754;2023-04-08T15:17:47;10.80;99.90
16511;DHT22;8368;48.772;8.754;2023-04-08T15:20:12;10.70;99.90
16511;DHT22;8368;48.772;8.754;2023-04-08T15:22:38;10.80;99.90
16511;DHT22;8368;48.772;8.754;2023-04-08T15:25:05;10.90;99.90
16511;DHT22;8368;48.772;8.754;2023-04-08T15:27:30;10.90;99.90
16511;DHT22;8368;48.772;8.754;2023-04-08T15:29:56;10.80;99.90
16511;DHT22;8368;48.772;8.754;2023-04-08T15:32:22;10.70;99.90
16511;DHT22;8368;48.772;8.754;2023-04-08T15:34:47;10.60;99.90
16511;DHT22;8368;48.772;8.754;2023-04-08T15:37:15;10.60;99.90
16511;DHT22;8368;48.772;8.754;2023-04-08T15:39:41;10.60;99.90
16511;DHT22;8368;48.772;8.754;2023-04-08T15:42:06;10.50;99.90
16511;DHT22;8368;48.772;8.754;2023-04-08T15:44:32;10.40;99.90
16511;DHT22;8368;48.772;8.754;2023-04-08T15:46:58;10.30;99.90
16511;DHT22;8368;48.772;8.754;2023-04-08T15:49:23;10.20;99.90
16511;DHT22;8368;48.772;8.754;2023-04-08T15:51:49;10.10;99.90
16511;DHT22;8368;48.772;8.754;2023-04-08T15:54:16;9.90;99.90
16511;DHT22;8368;48.772;8.754;2023-04-08T15:56:42;9.90;99.90
16511;DHT22;8368;48.772;8.754;2023-04-08T15:59:08;9.80;99.90
16511;DHT22;8368;48.772;8.754;2023-04-08T16:01:34;9.70;99.90